createdAt,value
2023-01-11T00:00:45.299Z,6.40
2023-01-11T00:03:12.175Z,6.80
2023-01-11T00:05:40.350Z,6.30
2023-01-11T00:08:07.559Z,7.60
2023-01-11T00:10:34.517Z,6.60
2023-01-11T00:13:01.659Z,7.00
2023-01-11T00:15:28.552Z,8.00
2023-01-11T00:17:55.357Z,7.70
2023-01-11T00:20:22.120Z,7.20
2023-01-11T00:22:49.008Z,6.80
2023-01-11T00:25:16.005Z,6.20
2023-01-11T00:27:42.773Z,6.90
2023-01-11T00:30:10.345Z,7.00
2023-01-11T00:32:37.248Z,6.80
2023-01-11T00:35:04.507Z,7.00
2023-01-11T00:37:31.374Z,7.80
2023-01-11T00:39:58.189Z,7.00
2023-01-11T00:42:43.819Z,7.20
2023-01-11T00:45:29.483Z,7.20
2023-01-11T00:48:01.131Z,7.40
2023-01-11T00:50:30.440Z,8.10
2023-01-11T00:52:58.220Z,7.10
2023-01-11T00:55:25.635Z,6.70
2023-01-11T00:57:52.663Z,5.90
2023-01-11T01:00:20.432Z,7.10
2023-01-11T01:02:47.555Z,7.10
2023-01-11T01:05:14.462Z,6.10
2023-01-11T01:07:41.332Z,5.90
2023-01-11T01:10:08.929Z,6.00
2023-01-11T01:12:54.427Z,6.20
2023-01-11T01:15:21.306Z,6.30
2023-01-11T01:17:48.185Z,6.70
2023-01-11T01:20:15.301Z,6.80
2023-01-11T01:22:42.260Z,7.10
2023-01-11T01:25:09.555Z,6.90
2023-01-11T01:27:36.343Z,6.90
2023-01-11T01:30:04.786Z,7.20
2023-01-11T01:32:31.625Z,6.90
2023-01-11T01:34:58.419Z,7.40
2023-01-11T01:37:25.250Z,6.30
2023-01-11T01:39:52.097Z,7.00
2023-01-11T01:42:20.015Z,7.70
2023-01-11T01:45:23.357Z,7.80
2023-01-11T01:47:58.218Z,7.70
2023-01-11T01:50:38.556Z,7.10
2023-01-11T01:53:10.627Z,7.00
2023-01-11T01:55:40.387Z,6.80
2023-01-11T01:58:10.254Z,7.00
2023-01-11T02:00:40.984Z,7.00
2023-01-11T02:03:08.476Z,6.70
2023-01-11T02:05:35.266Z,6.60
2023-01-11T02:08:02.096Z,6.40
2023-01-11T02:10:29.208Z,6.60
2023-01-11T02:12:58.740Z,6.60
2023-01-11T02:15:25.676Z,6.90
2023-01-11T02:17:52.501Z,6.10
2023-01-11T02:20:28.454Z,6.30
2023-01-11T02:23:07.520Z,7.10
2023-01-11T02:26:02.630Z,7.70
2023-01-11T02:29:09.228Z,7.20
2023-01-11T02:32:07.321Z,7.60
2023-01-11T02:35:09.854Z,6.80
2023-01-11T02:37:55.610Z,7.70
2023-01-11T02:40:30.345Z,6.90
2023-01-11T02:43:24.765Z,7.90
2023-01-11T02:45:59.433Z,8.10
2023-01-11T02:48:47.612Z,8.70
2023-01-11T02:51:20.471Z,8.70
2023-01-11T02:53:54.105Z,7.80
2023-01-11T02:56:31.280Z,8.40
2023-01-11T02:58:58.558Z,8.60
2023-01-11T03:01:25.788Z,7.90
2023-01-11T03:03:52.947Z,7.10
2023-01-11T03:07:13.093Z,7.90
2023-01-11T03:09:58.193Z,7.70
2023-01-11T03:12:55.032Z,7.00
2023-01-11T03:15:50.385Z,7.60
2023-01-11T03:18:36.134Z,9.00
2023-01-11T03:21:21.639Z,8.20
2023-01-11T03:24:07.539Z,9.70
2023-01-11T03:27:06.593Z,9.40
2023-01-11T03:29:47.237Z,9.30
2023-01-11T03:32:33.843Z,11.20
2023-01-11T03:35:06.830Z,11.40
2023-01-11T03:37:51.454Z,13.00
2023-01-11T03:40:21.954Z,12.60
2023-01-11T03:43:09.178Z,10.90
2023-01-11T03:45:37.526Z,10.70
2023-01-11T03:48:04.927Z,12.20
2023-01-11T03:50:31.728Z,11.80
2023-01-11T03:52:58.588Z,13.50
2023-01-11T03:55:26.795Z,11.20
2023-01-11T03:57:53.540Z,13.10
2023-01-11T04:00:21.426Z,10.90
2023-01-11T04:02:48.757Z,10.70
2023-01-11T04:05:15.562Z,10.70
2023-01-11T04:07:42.371Z,11.10
2023-01-11T04:10:10.197Z,11.40
2023-01-11T04:12:37.083Z,11.70
2023-01-11T04:15:05.405Z,11.00
2023-01-11T04:17:32.417Z,11.50
2023-01-11T04:19:59.217Z,11.80
2023-01-11T04:22:26.077Z,12.40
2023-01-11T04:24:52.885Z,11.10
2023-01-11T04:27:19.720Z,11.90
2023-01-11T04:29:46.553Z,12.90
2023-01-11T04:32:13.389Z,12.10
2023-01-11T04:34:40.167Z,10.60
2023-01-11T04:37:07.020Z,11.80
2023-01-11T04:39:33.827Z,12.80
2023-01-11T04:42:19.305Z,12.40
2023-01-11T04:44:48.800Z,11.80
2023-01-11T04:47:16.408Z,11.70
2023-01-11T04:49:43.272Z,12.20
2023-01-11T04:52:11.098Z,12.40
2023-01-11T04:54:38.549Z,13.60
2023-01-11T04:57:05.768Z,12.30
2023-01-11T04:59:32.746Z,12.20
2023-01-11T05:01:59.710Z,13.40
2023-01-11T05:04:26.632Z,12.20
2023-01-11T05:06:53.526Z,11.50
2023-01-11T05:09:20.424Z,11.90
2023-01-11T05:11:47.315Z,11.10
2023-01-11T05:14:15.275Z,12.50
2023-01-11T05:16:42.256Z,13.20
2023-01-11T05:19:10.312Z,11.90
2023-01-11T05:21:39.399Z,12.20
2023-01-11T05:24:09.170Z,11.60
2023-01-11T05:26:37.877Z,11.80
2023-01-11T05:29:06.639Z,11.30
2023-01-11T05:31:34.091Z,11.40
2023-01-11T05:34:01.068Z,11.90
2023-01-11T05:36:28.334Z,11.50
2023-01-11T05:38:56.339Z,10.90
2023-01-11T05:41:24.453Z,11.60
2023-01-11T05:44:10.660Z,11.60
2023-01-11T05:46:38.256Z,12.30
2023-01-11T05:49:05.346Z,12.20
2023-01-11T05:51:32.800Z,11.40
2023-01-11T05:54:00.073Z,13.40
2023-01-11T05:56:27.021Z,12.50
2023-01-11T05:58:53.805Z,13.70
2023-01-11T06:01:21.307Z,13.20
2023-01-11T06:03:48.114Z,13.10
2023-01-11T06:06:15.192Z,13.60
2023-01-11T06:08:42.159Z,13.40
2023-01-11T06:11:08.980Z,13.60
2023-01-11T06:13:35.930Z,13.50
2023-01-11T06:16:07.072Z,12.80
2023-01-11T06:18:38.890Z,14.80
2023-01-11T06:21:06.107Z,13.60
2023-01-11T06:23:34.104Z,12.60
2023-01-11T11:10:45.532Z,20.90
2023-01-11T11:13:42.537Z,22.50
2023-01-11T11:16:24.743Z,20.30
2023-01-11T11:18:52.094Z,17.30
2023-01-11T11:21:29.573Z,17.70
2023-01-11T11:24:05.922Z,16.20
2023-01-11T11:29:06.856Z,16.60
2023-01-11T11:31:35.525Z,17.70
2023-01-11T11:34:13.815Z,15.50
2023-01-11T11:36:44.660Z,13.40
2023-01-11T11:39:29.165Z,12.10
2023-01-11T11:42:07.373Z,11.90
2023-01-11T11:44:34.362Z,11.50
2023-01-11T11:47:06.201Z,12.10
2023-01-11T11:49:34.361Z,12.20
2023-01-11T11:52:01.845Z,11.90
2023-01-11T11:54:53.487Z,12.10
2023-01-11T11:57:28.857Z,12.20
2023-01-11T12:00:07.261Z,9.80
2023-01-11T12:02:35.163Z,12.40
2023-01-11T12:05:06.669Z,12.70
2023-01-11T12:07:49.689Z,12.70
2023-01-11T12:10:23.771Z,12.90
2023-01-11T12:12:57.466Z,15.20
2023-01-11T12:15:25.794Z,15.80
2023-01-11T12:17:52.799Z,16.10
2023-01-11T12:20:22.782Z,18.20
2023-01-11T12:22:50.219Z,17.40
2023-01-11T12:25:21.737Z,16.90
2023-01-11T12:27:57.753Z,14.90
2023-01-11T12:30:49.265Z,14.10
2023-01-11T12:33:38.361Z,13.30
2023-01-11T12:36:27.034Z,15.70
2023-01-11T12:39:13.885Z,15.50
2023-01-11T12:44:42.404Z,16.20
2023-01-11T12:47:47.600Z,16.00
2023-01-11T12:50:20.544Z,18.00
2023-01-11T12:53:09.749Z,16.20
2023-01-11T12:56:04.852Z,14.40
2023-01-11T12:58:40.600Z,15.60
2023-01-11T13:01:34.525Z,13.30
2023-01-11T13:04:07.655Z,16.80
2023-01-11T13:06:59.536Z,16.30
2023-01-11T13:09:32.502Z,17.80
2023-01-11T13:12:05.464Z,16.00
2023-01-11T13:14:41.412Z,17.20
2023-01-11T13:17:34.433Z,17.50
2023-01-11T13:20:48.648Z,16.10
2023-01-11T13:23:39.401Z,18.40
2023-01-11T13:26:35.474Z,18.00
2023-01-11T13:29:17.751Z,16.10
2023-01-11T13:31:45.208Z,15.70
2023-01-11T13:34:47.265Z,14.90
2023-01-11T13:37:18.246Z,14.60
2023-01-11T13:39:51.994Z,15.40
2023-01-11T13:42:24.642Z,15.20
2023-01-11T13:45:01.877Z,14.20
2023-01-11T13:47:35.639Z,14.90
2023-01-11T13:50:39.061Z,15.40
2023-01-11T13:53:15.980Z,16.00
2023-01-11T13:56:08.625Z,18.30
2023-01-11T13:58:53.664Z,20.40
2023-01-11T14:01:43.726Z,18.30
2023-01-11T14:04:43.504Z,17.20
2023-01-11T14:07:39.675Z,19.00
2023-01-11T14:10:17.757Z,18.00
2023-01-11T14:13:06.232Z,16.50
2023-01-11T14:15:47.150Z,15.30
2023-01-11T14:18:19.525Z,16.50
2023-01-11T14:20:55.764Z,16.60
2023-01-11T14:23:33.069Z,16.40
2023-01-11T14:26:26.900Z,16.50
2023-01-11T14:29:01.039Z,16.80
2023-01-11T14:31:43.661Z,18.00
2023-01-11T14:37:30.298Z,16.90
2023-01-11T14:40:21.856Z,19.40
2023-01-11T14:42:57.935Z,18.80
2023-01-11T14:45:40.101Z,16.50
2023-01-11T14:48:15.784Z,17.70
2023-01-11T14:50:50.959Z,18.30
2023-01-11T14:53:21.402Z,17.70
2023-01-11T14:55:49.340Z,19.70
2023-01-11T14:58:32.337Z,19.40
2023-01-11T15:00:59.171Z,20.50
2023-01-11T15:03:41.429Z,21.00
2023-01-11T15:06:08.384Z,18.50
2023-01-11T15:08:43.713Z,16.30
2023-01-11T15:11:24.455Z,16.20
2023-01-11T15:13:57.451Z,14.70
2023-01-11T15:16:47.219Z,15.70
2023-01-11T15:19:25.357Z,16.70
2023-01-11T15:21:53.500Z,17.70
2023-01-11T15:24:27.515Z,18.40
2023-01-11T15:26:55.027Z,17.60
2023-01-11T15:29:37.760Z,18.40
2023-01-11T15:32:19.552Z,17.50
2023-01-11T15:34:47.574Z,12.40
2023-01-11T15:37:42.318Z,11.30
2023-01-11T15:40:19.554Z,10.10
2023-01-11T15:43:14.309Z,10.70
2023-01-11T15:46:54.132Z,9.60
2023-01-11T15:49:23.945Z,9.30
2023-01-11T15:52:42.036Z,9.00
2023-01-11T15:55:27.708Z,10.20
2023-01-11T15:58:06.727Z,9.60
2023-01-11T16:00:55.600Z,10.10
2023-01-11T16:03:28.392Z,12.30
2023-01-11T16:06:17.966Z,11.00
2023-01-11T16:09:12.755Z,12.20
2023-01-11T16:11:42.235Z,11.20
2023-01-11T16:14:27.911Z,11.30
2023-01-11T16:16:55.943Z,15.50
2023-01-11T16:19:24.528Z,15.70
2023-01-11T16:21:52.705Z,15.80
2023-01-11T16:24:21.273Z,13.10
2023-01-11T16:26:53.908Z,13.80
2023-01-11T16:29:23.562Z,13.80
2023-01-11T16:32:14.825Z,13.00
2023-01-11T16:34:43.281Z,11.90
2023-01-11T16:37:20.896Z,15.40
2023-01-11T16:39:49.382Z,15.50
2023-01-11T16:42:16.203Z,15.10
2023-01-11T16:44:55.932Z,16.30
2023-01-11T16:47:22.764Z,16.50
2023-01-11T16:50:09.628Z,17.90
2023-01-11T16:55:15.550Z,16.70
2023-01-11T16:57:44.367Z,16.20
2023-01-11T17:00:32.579Z,19.30
2023-01-11T17:03:18.088Z,20.10
2023-01-11T17:05:58.611Z,19.90
2023-01-11T17:08:34.919Z,19.50
2023-01-11T17:11:26.667Z,15.60
2023-01-11T17:14:25.997Z,16.20
2023-01-11T17:16:54.907Z,14.70
2023-01-11T17:19:24.478Z,16.50
2023-01-11T17:22:00.101Z,15.10
2023-01-11T17:24:27.313Z,17.10
2023-01-11T17:26:56.740Z,18.70
2023-01-11T17:29:29.478Z,20.50
2023-01-11T17:31:56.549Z,18.20
2023-01-11T17:34:28.236Z,15.30
2023-01-11T17:36:55.626Z,17.90
2023-01-11T17:39:33.635Z,15.50
2023-01-11T17:42:29.925Z,16.20
2023-01-11T17:45:15.080Z,15.30
2023-01-11T17:47:52.909Z,14.20
2023-01-11T17:50:45.728Z,15.30
2023-01-11T17:53:12.552Z,16.40
2023-01-11T17:55:58.608Z,17.00
2023-01-11T17:58:26.522Z,17.80
2023-01-11T18:01:08.890Z,16.90
2023-01-11T18:04:03.345Z,17.00
2023-01-11T18:06:40.175Z,16.90
2023-01-11T18:09:29.413Z,16.10
2023-01-11T18:12:16.353Z,18.10
2023-01-11T18:17:35.386Z,15.70
2023-01-11T18:20:22.477Z,17.20
2023-01-11T18:23:05.269Z,19.30
2023-01-11T18:25:35.058Z,18.10
2023-01-11T18:28:11.328Z,16.70
2023-01-11T18:30:40.062Z,19.00
2023-01-11T18:33:20.242Z,19.70
2023-01-11T18:35:48.955Z,21.40
2023-01-11T18:38:24.560Z,19.20
2023-01-11T18:40:52.397Z,17.20
2023-01-11T18:43:24.895Z,22.60
2023-01-11T18:45:52.037Z,22.70
2023-01-11T18:48:19.049Z,20.30
2023-01-11T18:50:46.108Z,20.70
2023-01-11T18:53:13.177Z,20.50
2023-01-11T18:55:40.326Z,18.50
2023-01-11T18:58:07.325Z,18.60
2023-01-11T19:00:35.028Z,18.00
2023-01-11T21:16:08.032Z,33.10
2023-01-11T21:18:35.705Z,30.00
2023-01-11T21:21:02.520Z,23.10
2023-01-11T21:23:29.274Z,20.50
2023-01-11T21:25:57.055Z,17.40
2023-01-11T21:28:24.015Z,17.20
2023-01-11T21:30:50.745Z,15.30
2023-01-11T21:33:17.495Z,17.00
2023-01-11T21:35:44.139Z,15.90
2023-01-11T21:38:10.912Z,18.70
2023-01-11T21:40:37.570Z,19.50
2023-01-11T21:43:04.588Z,21.70
2023-01-11T21:45:31.413Z,23.10
2023-01-11T21:47:58.068Z,22.20
2023-01-11T21:50:25.442Z,18.90
2023-01-11T21:52:54.383Z,17.90
2023-01-11T21:55:21.040Z,18.70
2023-01-11T21:57:48.287Z,17.40
2023-01-11T22:00:16.603Z,19.10
2023-01-11T22:02:43.238Z,18.40
2023-01-11T22:05:09.930Z,19.20
2023-01-11T22:07:39.813Z,18.90
2023-01-11T22:10:07.122Z,18.90
2023-01-11T22:12:34.310Z,18.80
2023-01-11T22:15:01.001Z,20.10
2023-01-11T22:17:27.846Z,19.50
2023-01-11T22:19:54.560Z,18.30
2023-01-11T22:22:21.592Z,19.10
2023-01-11T22:24:48.280Z,15.50
2023-01-11T22:27:14.929Z,16.60
2023-01-11T22:29:43.821Z,14.10
2023-01-11T22:32:10.463Z,11.90
2023-01-11T22:34:38.771Z,12.80
2023-01-11T22:37:08.702Z,11.90
2023-01-11T22:39:39.956Z,15.60
2023-01-11T22:42:06.953Z,15.00
2023-01-11T22:44:33.795Z,13.20
2023-01-11T22:47:00.810Z,13.20
2023-01-11T22:49:27.451Z,11.70
2023-01-11T22:51:54.838Z,11.60
2023-01-11T22:54:22.431Z,11.70
2023-01-11T22:56:49.165Z,10.10
2023-01-11T22:59:15.760Z,10.50
2023-01-11T23:01:42.733Z,10.30
2023-01-11T23:04:11.584Z,10.30
2023-01-11T23:06:39.330Z,10.70
2023-01-11T23:09:07.974Z,10.90
2023-01-11T23:11:57.359Z,10.00
2023-01-11T23:14:32.498Z,10.20
2023-01-11T23:17:05.483Z,10.10
2023-01-11T23:19:34.193Z,11.00
2023-01-11T23:22:00.924Z,11.40
2023-01-11T23:24:27.706Z,11.70
2023-01-11T23:26:54.953Z,12.10
2023-01-11T23:29:21.830Z,10.70
2023-01-11T23:31:48.549Z,11.50
2023-01-11T23:34:15.310Z,11.20
2023-01-11T23:36:42.300Z,12.50
2023-01-11T23:39:14.541Z,12.50
2023-01-11T23:42:02.975Z,11.60
2023-01-11T23:44:29.689Z,11.90
2023-01-11T23:47:14.865Z,12.40
2023-01-11T23:49:43.205Z,11.90
2023-01-11T23:52:10.629Z,13.30
2023-01-11T23:54:37.342Z,12.20
2023-01-11T23:57:04.111Z,13.90
2023-01-11T23:59:32.031Z,15.10
